createdAt,value
2018-01-29T00:02:03.855Z,99949.27
2018-01-29T00:04:32.151Z,99942.58
2018-01-29T00:07:00.500Z,99936.05
2018-01-29T00:09:28.800Z,99937.52
2018-01-29T00:11:57.091Z,99931.05
2018-01-29T00:14:25.440Z,99932.59
2018-01-29T00:16:53.744Z,99929.47
2018-01-29T00:19:22.551Z,99926.78
2018-01-29T00:21:50.906Z,99923.55
2018-01-29T00:24:19.204Z,99920.72
2018-01-29T00:26:47.284Z,99916.36
2018-01-29T00:29:15.611Z,99920.92
2018-01-29T00:31:43.916Z,99914.98
2018-01-29T00:34:12.263Z,99916.84
2018-01-29T00:36:40.559Z,99918.19
2018-01-29T00:39:08.864Z,99923.02
2018-01-29T00:41:37.984Z,99926.49
2018-01-29T00:44:06.284Z,99927.95
2018-01-29T00:46:34.584Z,99921.73
2018-01-29T00:49:02.948Z,99927.50
2018-01-29T00:51:31.239Z,99929.95
2018-01-29T00:53:59.544Z,99934.69
2018-01-29T00:56:29.772Z,99934.01
2018-01-29T00:58:58.100Z,99927.00
2018-01-29T01:01:26.399Z,99930.91
2018-01-29T01:03:54.758Z,99928.42
2018-01-29T01:06:23.062Z,99927.00
2018-01-29T01:08:51.388Z,99921.94
2018-01-29T01:11:20.443Z,99927.86
2018-01-29T01:13:49.036Z,99919.00
2018-01-29T01:16:18.839Z,99920.49
2018-01-29T01:18:47.799Z,99917.89
2018-01-29T01:21:16.438Z,99912.00
2018-01-29T01:23:45.521Z,99910.19
2018-01-29T01:26:13.814Z,99909.52
2018-01-29T01:28:42.712Z,99913.23
2018-01-29T01:31:11.776Z,99910.72
2018-01-29T01:33:40.075Z,99917.14
2018-01-29T01:36:09.336Z,99921.23
2018-01-29T01:38:37.623Z,99917.40
2018-01-29T01:41:05.928Z,99914.72
2018-01-29T01:43:35.307Z,99918.33
2018-01-29T01:46:03.607Z,99913.03
2018-01-29T01:48:31.959Z,99919.13
2018-01-29T01:51:00.301Z,99925.07
2018-01-29T01:53:28.598Z,99919.64
2018-01-29T01:55:56.967Z,99921.35
2018-01-29T01:58:25.308Z,99918.78
2018-01-29T02:00:54.371Z,99914.03
2018-01-29T02:03:22.693Z,99905.50
2018-01-29T02:05:51.196Z,99910.80
2018-01-29T02:08:19.495Z,99913.08
2018-01-29T02:10:47.852Z,99912.56
2018-01-29T02:13:16.160Z,99905.78
2018-01-29T02:15:45.476Z,99905.76
2018-01-29T02:18:13.803Z,99902.73
2018-01-29T02:20:42.175Z,99888.51
2018-01-29T02:23:10.504Z,99890.48
2018-01-29T02:25:39.059Z,99894.30
2018-01-29T02:28:09.484Z,99884.59
2018-01-29T02:30:37.781Z,99890.27
2018-01-29T02:33:06.612Z,99889.07
2018-01-29T02:35:34.935Z,99890.20
2018-01-29T02:38:03.246Z,99886.76
2018-01-29T02:40:31.976Z,99883.28
2018-01-29T02:43:00.348Z,99889.30
2018-01-29T02:45:28.679Z,99885.35
2018-01-29T02:47:57.028Z,99886.11
2018-01-29T02:50:25.339Z,99887.62
2018-01-29T02:52:53.647Z,99886.82
2018-01-29T02:55:21.987Z,99884.52
2018-01-29T02:57:51.201Z,99878.77
2018-01-29T03:00:20.908Z,99876.33
2018-01-29T03:02:49.597Z,99875.00
2018-01-29T03:05:18.248Z,99868.60
2018-01-29T03:07:47.423Z,99868.83
2018-01-29T03:10:16.448Z,99869.34
2018-01-29T03:12:45.564Z,99874.67
2018-01-29T03:15:14.274Z,99871.98
2018-01-29T03:17:43.013Z,99864.27
2018-01-29T03:20:12.144Z,99861.72
2018-01-29T03:22:41.233Z,99862.19
2018-01-29T03:25:09.948Z,99868.76
2018-01-29T03:27:39.258Z,99868.46
2018-01-29T03:30:08.257Z,99869.57
2018-01-29T03:32:37.470Z,99866.02
2018-01-29T03:35:06.074Z,99858.97
2018-01-29T03:37:35.431Z,99859.23
2018-01-29T03:40:05.096Z,99862.14
2018-01-29T03:42:33.395Z,99854.22
2018-01-29T03:45:02.367Z,99858.47
2018-01-29T03:47:30.677Z,99855.52
2018-01-29T03:49:59.167Z,99859.62
2018-01-29T03:52:27.740Z,99860.42
2018-01-29T03:54:56.282Z,99862.58
2018-01-29T03:57:24.586Z,99862.87
2018-01-29T03:59:53.290Z,99865.98
2018-01-29T04:02:21.584Z,99868.66
2018-01-29T04:04:49.890Z,99865.89
2018-01-29T04:07:18.739Z,99868.67
2018-01-29T04:09:47.038Z,99868.47
2018-01-29T04:12:15.475Z,99859.75
2018-01-29T04:14:43.799Z,99858.20
2018-01-29T04:17:12.104Z,99853.66
2018-01-29T04:19:40.431Z,99855.23
2018-01-29T04:22:09.315Z,99858.39
2018-01-29T04:24:37.606Z,99854.41
2018-01-29T04:27:05.905Z,99855.14
2018-01-29T04:29:34.264Z,99860.95
2018-01-29T04:32:02.565Z,99852.11
2018-01-29T04:34:30.864Z,99854.83
2018-01-29T04:36:59.474Z,99851.34
2018-01-29T04:39:27.785Z,99848.04
2018-01-29T04:41:56.087Z,99845.48
2018-01-29T04:44:24.411Z,99847.63
2018-01-29T04:46:53.475Z,99851.13
2018-01-29T04:49:22.004Z,99850.55
2018-01-29T04:51:50.308Z,99850.30
2018-01-29T04:54:19.329Z,99851.72
2018-01-29T04:56:47.664Z,99854.22
2018-01-29T04:59:16.133Z,99854.00
2018-01-29T05:01:45.180Z,99860.23
2018-01-29T05:04:13.797Z,99853.71
2018-01-29T05:06:42.112Z,99852.38
2018-01-29T05:09:10.414Z,99851.72
2018-01-29T05:11:38.790Z,99847.04
2018-01-29T05:14:07.091Z,99847.16
2018-01-29T05:16:35.384Z,99848.97
2018-01-29T05:19:03.715Z,99845.73
2018-01-29T05:21:32.124Z,99843.38
2018-01-29T05:24:00.423Z,99847.41
2018-01-29T05:26:28.809Z,99849.31
2018-01-29T05:28:57.850Z,99843.91
2018-01-29T05:31:26.143Z,99843.20
2018-01-29T05:33:54.496Z,99834.81
2018-01-29T05:36:26.698Z,99830.33
2018-01-29T05:38:55.031Z,99836.92
2018-01-29T05:41:23.963Z,99832.56
2018-01-29T05:43:52.255Z,99837.21
2018-01-29T05:46:21.384Z,99833.52
2018-01-29T05:48:49.689Z,99832.70
2018-01-29T05:51:17.982Z,99827.34
2018-01-29T05:53:46.335Z,99832.86
2018-01-29T05:56:14.631Z,99829.86
2018-01-29T05:58:42.928Z,99830.52
2018-01-29T06:01:11.263Z,99833.37
2018-01-29T06:03:39.559Z,99825.03
2018-01-29T06:06:07.855Z,99829.80
2018-01-29T06:08:36.943Z,99830.91
2018-01-29T06:11:05.248Z,99825.75
2018-01-29T06:13:33.603Z,99826.13
2018-01-29T06:16:01.911Z,99835.73
2018-01-29T06:18:30.334Z,99831.59
2018-01-29T06:20:58.698Z,99831.84
2018-01-29T06:23:27.014Z,99826.17
2018-01-29T06:25:55.320Z,99823.94
2018-01-29T06:28:24.397Z,99829.78
2018-01-29T06:30:52.615Z,99832.77
2018-01-29T06:33:20.923Z,99829.80
2018-01-29T06:35:49.136Z,99830.73
2018-01-29T06:38:17.622Z,99827.08
2018-01-29T06:40:46.691Z,99825.02
2018-01-29T06:43:15.599Z,99826.06
2018-01-29T06:45:44.968Z,99823.05
2018-01-29T06:48:13.259Z,99830.02
2018-01-29T06:50:41.551Z,99823.95
2018-01-29T06:53:10.423Z,99826.48
2018-01-29T06:55:38.999Z,99825.17
2018-01-29T06:58:08.007Z,99822.24
2018-01-29T07:00:37.000Z,99821.41
2018-01-29T07:03:05.304Z,99822.77
2018-01-29T07:05:33.623Z,99817.31
2018-01-29T07:08:01.959Z,99824.23
2018-01-29T07:10:30.262Z,99820.60
2018-01-29T07:12:58.559Z,99816.14
2018-01-29T07:15:28.268Z,99811.25
2018-01-29T07:17:57.487Z,99812.83
2018-01-29T07:20:25.799Z,99813.11
2018-01-29T07:22:54.100Z,99806.03
2018-01-29T07:25:22.466Z,99804.30
2018-01-29T07:27:50.537Z,99806.19
2018-01-29T07:30:18.971Z,99809.03
2018-01-29T07:32:47.579Z,99810.30
2018-01-29T07:35:15.879Z,99804.44
2018-01-29T07:37:44.176Z,99796.72
2018-01-29T07:40:12.392Z,99795.81
2018-01-29T07:42:40.700Z,99788.80
2018-01-29T07:45:09.873Z,99792.22
2018-01-29T07:47:38.215Z,99786.37
2018-01-29T07:50:06.532Z,99785.44
2018-01-29T07:52:34.888Z,99780.84
2018-01-29T07:55:03.308Z,99782.70
2018-01-29T07:57:31.612Z,99780.48
2018-01-29T07:59:59.968Z,99774.69
2018-01-29T08:02:28.274Z,99775.69
2018-01-29T08:04:56.935Z,99773.63
2018-01-29T08:07:25.780Z,99770.80
2018-01-29T08:09:54.336Z,99771.09
2018-01-29T08:12:22.643Z,99766.66
2018-01-29T08:14:51.018Z,99767.69
2018-01-29T08:17:19.408Z,99765.13
2018-01-29T08:19:47.714Z,99762.66
2018-01-29T08:22:16.285Z,99765.59
2018-01-29T08:24:45.756Z,99755.38
2018-01-29T08:27:14.072Z,99759.83
2018-01-29T08:29:43.196Z,99751.75
2018-01-29T08:32:11.615Z,99754.94
2018-01-29T08:34:39.916Z,99761.22
2018-01-29T08:37:08.268Z,99761.22
2018-01-29T08:39:36.576Z,99755.26
2018-01-29T08:42:06.313Z,99754.46
2018-01-29T08:44:34.656Z,99762.89
2018-01-29T08:47:03.500Z,99753.98
2018-01-29T08:49:31.811Z,99764.31
2018-01-29T08:52:00.635Z,99767.38
2018-01-29T08:54:28.940Z,99761.32
2018-01-29T08:56:57.236Z,99764.55
2018-01-29T08:59:25.579Z,99763.27
2018-01-29T09:01:54.652Z,99762.13
2018-01-29T09:04:23.832Z,99763.33
2018-01-29T09:06:52.679Z,99763.64
2018-01-29T09:09:21.033Z,99763.52
2018-01-29T09:11:49.146Z,99761.12
2018-01-29T09:14:17.502Z,99752.90
2018-01-29T09:16:45.812Z,99751.08
2018-01-29T09:19:14.440Z,99752.42
2018-01-29T09:21:42.788Z,99746.39
2018-01-29T09:24:11.272Z,99739.41
2018-01-29T09:26:39.597Z,99734.48
2018-01-29T09:29:08.317Z,99737.24
2018-01-29T09:31:36.849Z,99728.27
2018-01-29T09:34:05.156Z,99723.12
2018-01-29T09:36:33.528Z,99721.08
2018-01-29T09:39:01.744Z,99719.37
2018-01-29T09:41:30.284Z,99718.06
2018-01-29T09:43:59.132Z,99710.11
2018-01-29T09:46:27.474Z,99719.61
2018-01-29T09:48:56.364Z,99708.56
2018-01-29T09:51:24.688Z,99710.95
2018-01-29T09:53:53.636Z,99707.53
2018-01-29T09:56:21.955Z,99710.58
2018-01-29T09:58:50.520Z,99715.80
2018-01-29T10:01:18.876Z,99714.22
2018-01-29T10:03:47.206Z,99716.14
2018-01-29T10:06:15.516Z,99713.05
2018-01-29T10:08:43.876Z,99719.47
2018-01-29T10:11:12.179Z,99707.92
2018-01-29T10:13:40.552Z,99715.92
2018-01-29T10:16:08.918Z,99716.52
2018-01-29T10:18:37.232Z,99715.04
2018-01-29T10:21:05.571Z,99704.02
2018-01-29T10:23:34.387Z,99709.29
2018-01-29T10:26:03.318Z,99698.31
2018-01-29T10:28:31.630Z,99683.22
2018-01-29T10:30:59.935Z,99673.89
2018-01-29T10:33:28.292Z,99673.61
2018-01-29T10:35:56.599Z,99660.51
2018-01-29T10:38:25.387Z,99666.30
2018-01-29T10:40:53.752Z,99664.20
2018-01-29T10:43:22.071Z,99650.35
2018-01-29T10:45:50.386Z,99647.56
2018-01-29T10:48:18.735Z,99645.16
2018-01-29T10:50:47.812Z,99637.36
2018-01-29T10:53:16.123Z,99636.69
2018-01-29T10:55:44.500Z,99634.24
2018-01-29T10:58:12.807Z,99619.77
2018-01-29T11:00:46.630Z,99609.99
2018-01-29T11:03:14.928Z,99611.53
2018-01-29T11:05:43.244Z,99604.86
2018-01-29T11:08:11.483Z,99600.72
2018-01-29T11:10:40.995Z,99602.74
2018-01-29T11:13:11.408Z,99588.75
2018-01-29T11:15:39.748Z,99578.06
2018-01-29T11:18:07.978Z,99580.81
2018-01-29T11:20:36.290Z,99583.08
2018-01-29T11:23:04.600Z,99579.91
2018-01-29T11:25:32.961Z,99571.99
2018-01-29T11:28:01.275Z,99579.63
2018-01-29T11:30:29.587Z,99563.12
2018-01-29T11:32:57.940Z,99564.33
2018-01-29T11:35:27.011Z,99563.69
2018-01-29T11:37:55.328Z,99558.48
2018-01-29T11:40:23.783Z,99551.45
2018-01-29T11:42:52.095Z,99547.05
2018-01-29T11:45:20.407Z,99547.73
2018-01-29T11:47:49.062Z,99531.07
2018-01-29T11:50:17.375Z,99526.89
2018-01-29T11:52:45.688Z,99528.52
2018-01-29T11:55:14.289Z,99522.69
2018-01-29T11:57:43.359Z,99523.94
2018-01-29T12:00:12.432Z,99516.54
2018-01-29T12:02:40.774Z,99512.59
2018-01-29T12:05:09.856Z,99507.67
2018-01-29T12:07:38.971Z,99501.03
2018-01-29T12:10:07.303Z,99493.56
2018-01-29T12:12:35.667Z,99483.95
2018-01-29T12:15:04.268Z,99484.52
2018-01-29T12:17:32.579Z,99472.56
2018-01-29T12:20:00.890Z,99471.66
2018-01-29T12:22:30.722Z,99464.50
2018-01-29T12:24:59.146Z,99460.23
2018-01-29T12:27:27.507Z,99462.58
2018-01-29T12:29:55.865Z,99463.85
2018-01-29T12:32:24.168Z,99462.13
2018-01-29T12:34:53.244Z,99463.80
2018-01-29T12:37:22.383Z,99456.92
2018-01-29T12:39:50.694Z,99455.01
2018-01-29T12:42:19.012Z,99446.69
2018-01-29T12:44:47.852Z,99450.37
2018-01-29T12:47:16.179Z,99449.86
2018-01-29T12:49:44.491Z,99434.42
2018-01-29T12:52:12.843Z,99441.08
2018-01-29T12:54:41.151Z,99431.51
2018-01-29T12:57:09.464Z,99430.41
2018-01-29T12:59:37.832Z,99424.72
2018-01-29T13:02:06.135Z,99422.55
2018-01-29T13:04:34.856Z,99421.80
2018-01-29T13:07:03.320Z,99418.35
2018-01-29T13:09:33.040Z,99411.52
2018-01-29T13:12:01.603Z,99405.73
2018-01-29T13:14:29.674Z,99397.67
2018-01-29T13:16:58.027Z,99393.05
2018-01-29T13:19:26.338Z,99378.02
2018-01-29T13:21:54.650Z,99381.52
2018-01-29T13:24:23.268Z,99376.73
2018-01-29T13:26:52.343Z,99376.35
2018-01-29T13:29:20.652Z,99373.59
2018-01-29T13:31:50.215Z,99364.06
2018-01-29T13:34:18.523Z,99362.99
2018-01-29T13:36:46.831Z,99362.83
2018-01-29T13:39:15.171Z,99359.53
2018-01-29T13:41:43.476Z,99348.55
2018-01-29T13:44:12.547Z,99350.40
2018-01-29T13:46:40.903Z,99350.32
2018-01-29T13:49:09.744Z,99342.70
2018-01-29T13:51:38.051Z,99344.77
2018-01-29T13:54:06.408Z,99343.09
2018-01-29T13:56:35.677Z,99333.36
2018-01-29T13:59:04.657Z,99330.41
2018-01-29T14:01:34.060Z,99322.53
2018-01-29T14:04:02.455Z,99327.61
2018-01-29T14:06:30.835Z,99326.96
2018-01-29T14:08:59.945Z,99326.56
2018-01-29T14:11:28.252Z,99325.89
2018-01-29T14:13:56.558Z,99318.52
2018-01-29T14:16:24.923Z,99314.03
2018-01-29T14:18:53.429Z,99321.98
2018-01-29T14:21:21.741Z,99320.17
2018-01-29T14:23:50.355Z,99321.45
2018-01-29T14:26:18.667Z,99319.52
2018-01-29T14:28:47.293Z,99321.93
2018-01-29T14:31:15.849Z,99321.81
2018-01-29T14:33:44.163Z,99322.22
2018-01-29T14:36:13.223Z,99319.11
2018-01-29T14:38:41.539Z,99314.56
2018-01-29T14:41:09.862Z,99304.85
2018-01-29T14:43:38.219Z,99307.89
2018-01-29T14:46:06.527Z,99308.82
2018-01-29T14:48:35.119Z,99312.88
2018-01-29T14:51:03.471Z,99309.84
2018-01-29T14:53:31.792Z,99308.80
2018-01-29T14:56:00.104Z,99307.08
2018-01-29T14:58:28.472Z,99300.47
2018-01-29T15:00:56.791Z,99299.44
2018-01-29T15:03:25.649Z,99304.83
2018-01-29T15:05:54.008Z,99299.25
2018-01-29T15:08:22.738Z,99311.03
2018-01-29T15:10:51.055Z,99315.48
2018-01-29T15:13:20.187Z,99319.89
2018-01-29T15:15:48.540Z,99319.02
2018-01-29T15:18:16.890Z,99311.60
2018-01-29T15:20:45.884Z,99311.19
2018-01-29T15:23:14.200Z,99307.55
2018-01-29T15:25:42.498Z,99312.45
2018-01-29T15:28:10.846Z,99314.70
2018-01-29T15:30:39.168Z,99314.39
2018-01-29T15:33:08.175Z,99319.96
2018-01-29T15:35:36.523Z,99313.55
2018-01-29T15:38:04.827Z,99309.61
2018-01-29T15:40:33.123Z,99318.21
2018-01-29T15:43:01.745Z,99315.63
2018-01-29T15:45:30.055Z,99315.80
2018-01-29T15:47:58.456Z,99317.02
2018-01-29T15:50:26.915Z,99322.45
2018-01-29T15:52:55.275Z,99327.75
2018-01-29T15:55:23.601Z,99331.57
2018-01-29T15:57:51.900Z,99332.13
2018-01-29T16:00:20.624Z,99337.39
2018-01-29T16:02:48.928Z,99338.43
2018-01-29T16:05:17.231Z,99339.09
2018-01-29T16:07:45.604Z,99339.20
2018-01-29T16:10:13.984Z,99346.95
2018-01-29T16:12:43.094Z,99349.31
2018-01-29T16:15:11.397Z,99345.22
2018-01-29T16:17:39.751Z,99347.12
2018-01-29T16:20:08.106Z,99354.34
2018-01-29T16:22:36.404Z,99348.30
2018-01-29T16:25:04.703Z,99353.32
2018-01-29T16:27:33.048Z,99346.02
2018-01-29T16:30:01.355Z,99343.78
2018-01-29T16:32:29.655Z,99344.05
2018-01-29T16:34:57.996Z,99345.33
2018-01-29T16:37:26.300Z,99336.53
2018-01-29T16:39:54.707Z,99349.12
2018-01-29T16:42:23.043Z,99345.00
2018-01-29T16:44:51.347Z,99346.78
2018-01-29T16:47:19.647Z,99341.19
2018-01-29T16:49:48.258Z,99336.93
2018-01-29T16:52:16.559Z,99333.13
2018-01-29T16:54:44.871Z,99330.46
2018-01-29T16:57:13.348Z,99333.56
2018-01-29T16:59:41.863Z,99336.93
2018-01-29T17:02:10.223Z,99326.49
2018-01-29T17:04:39.252Z,99328.36
2018-01-29T17:07:07.600Z,99329.77
2018-01-29T17:09:36.711Z,99327.39
2018-01-29T17:12:05.072Z,99325.18
2018-01-29T17:14:33.523Z,99324.73
2018-01-29T17:17:01.884Z,99323.72
2018-01-29T17:19:30.847Z,99315.23
2018-01-29T17:21:59.211Z,99316.89
2018-01-29T17:24:27.751Z,99316.05
2018-01-29T17:26:56.096Z,99318.33
2018-01-29T17:29:24.753Z,99322.66
2018-01-29T17:31:54.627Z,99315.36
2018-01-29T17:34:24.180Z,99313.59
2018-01-29T17:36:52.486Z,99308.83
2018-01-29T17:39:20.790Z,99311.72
2018-01-29T17:41:49.923Z,99314.33
2018-01-29T17:44:18.223Z,99319.12
2018-01-29T17:46:46.527Z,99318.46
2018-01-29T17:49:14.923Z,99322.94
2018-01-29T17:51:43.271Z,99321.07
2018-01-29T17:54:11.579Z,99316.18
2018-01-29T17:56:39.915Z,99315.23
2018-01-29T17:59:08.261Z,99316.47
2018-01-29T18:01:37.263Z,99318.33
2018-01-29T18:04:05.623Z,99321.58
2018-01-29T18:06:33.843Z,99317.84
2018-01-29T18:09:02.155Z,99331.08
2018-01-29T18:11:30.499Z,99330.74
2018-01-29T18:13:59.194Z,99332.25
2018-01-29T18:16:27.550Z,99335.50
2018-01-29T18:18:56.057Z,99341.01
2018-01-29T18:21:24.783Z,99346.09
2018-01-29T18:23:53.085Z,99347.78
2018-01-29T18:26:21.660Z,99340.66
2018-01-29T18:28:49.959Z,99341.48
2018-01-29T18:31:18.968Z,99342.09
2018-01-29T18:33:47.339Z,99349.69
2018-01-29T18:36:15.663Z,99355.24
2018-01-29T18:38:44.154Z,99350.98
2018-01-29T18:41:12.519Z,99344.20
2018-01-29T18:43:40.816Z,99340.86
2018-01-29T18:46:10.443Z,99342.91
2018-01-29T18:48:38.841Z,99342.80
2018-01-29T18:51:07.132Z,99340.66
2018-01-29T18:53:35.492Z,99346.56
2018-01-29T18:56:03.800Z,99337.66
2018-01-29T18:58:32.136Z,99349.84
2018-01-29T19:01:01.749Z,99356.43
2018-01-29T19:03:30.050Z,99359.27
2018-01-29T19:05:59.575Z,99351.20
2018-01-29T19:08:28.335Z,99347.13
2018-01-29T19:10:57.450Z,99345.39
2018-01-29T19:13:25.902Z,99352.04
2018-01-29T19:15:55.586Z,99345.05
2018-01-29T19:18:23.899Z,99352.59
2018-01-29T19:20:53.082Z,99347.45
2018-01-29T19:23:21.416Z,99343.95
2018-01-29T19:25:49.762Z,99341.06
2018-01-29T19:28:18.923Z,99341.90
2018-01-29T19:30:49.275Z,99348.39
2018-01-29T19:33:17.537Z,99350.16
2018-01-29T19:35:45.835Z,99346.54
2018-01-29T19:38:14.399Z,99343.59
2018-01-29T19:40:43.794Z,99349.51
2018-01-29T19:43:12.201Z,99344.80
2018-01-29T19:45:40.559Z,99345.39
2018-01-29T19:48:09.698Z,99347.27
2018-01-29T19:50:38.152Z,99347.77
2018-01-29T19:53:06.509Z,99351.02
2018-01-29T19:55:35.433Z,99357.28
2018-01-29T19:58:03.644Z,99349.27
2018-01-29T20:00:31.981Z,99353.01
2018-01-29T20:03:00.279Z,99363.77
2018-01-29T20:05:28.681Z,99369.16
2018-01-29T20:07:57.021Z,99372.20
2018-01-29T20:10:26.083Z,99382.58
2018-01-29T20:12:54.788Z,99383.58
2018-01-29T20:15:23.856Z,99380.12
2018-01-29T20:17:52.392Z,99375.92
2018-01-29T20:20:20.794Z,99379.91
2018-01-29T20:22:49.914Z,99382.53
2018-01-29T20:25:19.581Z,99380.25
2018-01-29T20:27:47.921Z,99376.36
2018-01-29T20:30:17.038Z,99383.26
2018-01-29T20:32:45.367Z,99385.13
2018-01-29T20:35:13.719Z,99381.64
2018-01-29T20:37:42.628Z,99380.72
2018-01-29T20:40:11.402Z,99367.67
2018-01-29T20:42:39.703Z,99372.01
2018-01-29T20:45:08.106Z,99378.53
2018-01-29T20:47:36.502Z,99391.48
2018-01-29T20:50:04.855Z,99389.19
2018-01-29T20:52:33.206Z,99401.27
2018-01-29T20:55:01.602Z,99406.73
2018-01-29T20:57:29.967Z,99405.11
2018-01-29T20:59:58.342Z,99389.73
2018-01-29T21:02:26.751Z,99384.33
2018-01-29T21:04:55.978Z,99370.49
2018-01-29T21:07:24.280Z,99369.50
2018-01-29T21:09:52.632Z,99371.11
2018-01-29T21:12:21.623Z,99381.02
2018-01-29T21:14:49.965Z,99370.58
2018-01-29T21:17:18.275Z,99365.51
2018-01-29T21:19:47.311Z,99358.98
2018-01-29T21:22:15.611Z,99376.65
2018-01-29T21:24:43.903Z,99389.66
2018-01-29T21:27:12.435Z,99385.19
2018-01-29T21:29:40.961Z,99396.22
2018-01-29T21:32:09.747Z,99399.91
2018-01-29T21:34:38.886Z,99406.09
2018-01-29T21:37:07.207Z,99400.46
2018-01-29T21:39:35.506Z,99394.23
2018-01-29T21:42:03.927Z,99390.87
2018-01-29T21:44:32.509Z,99394.91
2018-01-29T21:47:00.870Z,99398.99
2018-01-29T21:49:29.179Z,99395.86
2018-01-29T21:51:57.532Z,99397.30
2018-01-29T21:54:25.805Z,99397.92
2018-01-29T21:56:54.000Z,99402.30
2018-01-29T21:59:22.571Z,99404.77
2018-01-29T22:01:50.936Z,99407.17
2018-01-29T22:04:19.276Z,99401.98
2018-01-29T22:06:47.626Z,99406.83
2018-01-29T22:09:16.743Z,99404.23
2018-01-29T22:11:45.090Z,99413.53
2018-01-29T22:14:13.429Z,99420.20
2018-01-29T22:16:42.078Z,99421.95
2018-01-29T22:19:10.370Z,99418.80
2018-01-29T22:21:38.659Z,99420.41
2018-01-29T22:24:06.995Z,99415.39
2018-01-29T22:26:35.297Z,99411.23
2018-01-29T22:29:04.635Z,99406.04
2018-01-29T22:31:33.177Z,99405.86
2018-01-29T22:34:01.572Z,99400.58
2018-01-29T22:36:29.920Z,99402.09
2018-01-29T22:38:58.223Z,99393.42
2018-01-29T22:41:26.526Z,99396.92
2018-01-29T22:43:55.795Z,99399.69
2018-01-29T22:46:24.086Z,99395.79
2018-01-29T22:48:52.980Z,99403.68
2018-01-29T22:51:21.325Z,99398.41
2018-01-29T22:53:49.803Z,99402.48
2018-01-29T22:56:18.615Z,99387.29
2018-01-29T22:58:46.956Z,99391.99
2018-01-29T23:01:15.811Z,99396.64
2018-01-29T23:03:44.876Z,99389.38
2018-01-29T23:06:13.237Z,99401.14
2018-01-29T23:08:41.807Z,99401.17
2018-01-29T23:11:10.135Z,99407.87
2018-01-29T23:13:38.446Z,99410.14
2018-01-29T23:16:07.051Z,99411.27
2018-01-29T23:18:35.568Z,99411.27
2018-01-29T23:21:03.863Z,99412.70
2018-01-29T23:23:32.468Z,99412.00
2018-01-29T23:26:00.807Z,99417.52
2018-01-29T23:28:29.500Z,99421.03
2018-01-29T23:30:57.847Z,99421.93
2018-01-29T23:33:26.184Z,99425.70
2018-01-29T23:35:54.492Z,99429.53
2018-01-29T23:38:22.947Z,99418.41
2018-01-29T23:40:51.247Z,99418.41
2018-01-29T23:43:19.546Z,99417.53
2018-01-29T23:45:47.900Z,99421.62
2018-01-29T23:48:16.214Z,99412.22
2018-01-29T23:50:44.808Z,99421.70
2018-01-29T23:53:14.007Z,99425.61
2018-01-29T23:55:42.302Z,99428.89
2018-01-29T23:58:10.604Z,99421.08
